sensor_id;sensor_type;location;lat;lon;timestamp;temperature;humidity
19847;DHT22;10084;50.518;8.588;2022-07-15T00:00:34;15.40;50.30
19847;DHT22;10084;50.518;8.588;2022-07-15T00:03:00;15.30;51.10
19847;DHT22;10084;50.518;8.588;2022-07-15T00:05:26;15.20;51.30
19847;DHT22;10084;50.518;8.588;2022-07-15T00:17:42;14.60;71.30
19847;DHT22;10084;50.518;8.588;2022-07-15T00:20:09;14.60;79.80
19847;DHT22;10084;50.518;8.588;2022-07-15T00:22:36;14.50;79.30
19847;DHT22;10084;50.518;8.588;2022-07-15T00:25:02;14.50;79.00
19847;DHT22;10084;50.518;8.588;2022-07-15T00:27:27;14.50;78.50
19847;DHT22;10084;50.518;8.588;2022-07-15T00:29:53;14.50;78.10
19847;DHT22;10084;50.518;8.588;2022-07-15T00:32:19;14.60;77.90
19847;DHT22;10084;50.518;8.588;2022-07-15T00:34:44;14.70;78.30
19847;DHT22;10084;50.518;8.588;2022-07-15T00:37:10;14.70;77.70
19847;DHT22;10084;50.518;8.588;2022-07-15T00:39:36;14.80;78.20
19847;DHT22;10084;50.518;8.588;2022-07-15T00:42:03;14.90;78.00
19847;DHT22;10084;50.518;8.588;2022-07-15T00:44:29;14.90;77.60
19847;DHT22;10084;50.518;8.588;2022-07-15T00:46:56;14.90;77.70
19847;DHT22;10084;50.518;8.588;2022-07-15T00:49:22;14.90;78.00
19847;DHT22;10084;50.518;8.588;2022-07-15T00:51:50;14.80;77.90
19847;DHT22;10084;50.518;8.588;2022-07-15T00:54:21;14.80;77.70
19847;DHT22;10084;50.518;8.588;2022-07-15T00:56:50;14.80;78.20
19847;DHT22;10084;50.518;8.588;2022-07-15T00:59:17;14.70;77.80
19847;DHT22;10084;50.518;8.588;2022-07-15T01:01:45;14.70;78.40
19847;DHT22;10084;50.518;8.588;2022-07-15T01:04:13;14.60;78.20
19847;DHT22;10084;50.518;8.588;2022-07-15T01:06:39;14.60;79.00
19847;DHT22;10084;50.518;8.588;2022-07-15T01:09:05;14.60;78.40
19847;DHT22;10084;50.518;8.588;2022-07-15T01:11:31;14.60;78.40
19847;DHT22;10084;50.518;8.588;2022-07-15T01:14:00;14.60;78.50
19847;DHT22;10084;50.518;8.588;2022-07-15T01:16:26;14.50;79.30
19847;DHT22;10084;50.518;8.588;2022-07-15T01:18:53;14.50;79.40
19847;DHT22;10084;50.518;8.588;2022-07-15T01:21:20;14.40;79.50
19847;DHT22;10084;50.518;8.588;2022-07-15T01:23:49;14.40;81.10
19847;DHT22;10084;50.518;8.588;2022-07-15T01:28:57;14.10;67.70
19847;DHT22;10084;50.518;8.588;2022-07-15T01:31:23;14.20;69.50
19847;DHT22;10084;50.518;8.588;2022-07-15T01:33:49;14.10;74.50
19847;DHT22;10084;50.518;8.588;2022-07-15T01:36:15;13.90;74.00
19847;DHT22;10084;50.518;8.588;2022-07-15T01:38:47;13.80;83.40
19847;DHT22;10084;50.518;8.588;2022-07-15T01:41:14;13.70;82.20
19847;DHT22;10084;50.518;8.588;2022-07-15T01:43:40;13.60;81.40
19847;DHT22;10084;50.518;8.588;2022-07-15T01:46:06;13.60;80.30
19847;DHT22;10084;50.518;8.588;2022-07-15T01:48:36;13.50;81.40
19847;DHT22;10084;50.518;8.588;2022-07-15T01:51:40;13.40;81.80
19847;DHT22;10084;50.518;8.588;2022-07-15T01:54:06;13.40;81.70
19847;DHT22;10084;50.518;8.588;2022-07-15T01:56:32;13.30;81.30
19847;DHT22;10084;50.518;8.588;2022-07-15T01:58:58;13.30;80.10
19847;DHT22;10084;50.518;8.588;2022-07-15T02:01:23;13.40;80.70
19847;DHT22;10084;50.518;8.588;2022-07-15T02:03:49;13.40;80.10
19847;DHT22;10084;50.518;8.588;2022-07-15T02:06:15;13.40;79.90
19847;DHT22;10084;50.518;8.588;2022-07-15T02:08:42;13.50;79.40
19847;DHT22;10084;50.518;8.588;2022-07-15T02:11:11;13.50;79.30
19847;DHT22;10084;50.518;8.588;2022-07-15T02:13:37;13.50;79.00
19847;DHT22;10084;50.518;8.588;2022-07-15T02:16:02;13.50;78.50
19847;DHT22;10084;50.518;8.588;2022-07-15T02:18:28;13.50;78.50
19847;DHT22;10084;50.518;8.588;2022-07-15T02:20:55;13.50;78.70
19847;DHT22;10084;50.518;8.588;2022-07-15T02:23:21;13.50;78.30
19847;DHT22;10084;50.518;8.588;2022-07-15T02:25:47;13.50;78.20
19847;DHT22;10084;50.518;8.588;2022-07-15T02:28:13;13.50;78.20
19847;DHT22;10084;50.518;8.588;2022-07-15T02:30:40;13.40;78.20
19847;DHT22;10084;50.518;8.588;2022-07-15T02:33:07;13.40;78.20
19847;DHT22;10084;50.518;8.588;2022-07-15T02:35:36;13.40;78.40
19847;DHT22;10084;50.518;8.588;2022-07-15T02:38:04;13.40;78.20
19847;DHT22;10084;50.518;8.588;2022-07-15T02:40:31;13.40;77.90
19847;DHT22;10084;50.518;8.588;2022-07-15T02:42:59;13.40;77.90
19847;DHT22;10084;50.518;8.588;2022-07-15T02:45:27;13.50;77.80
19847;DHT22;10084;50.518;8.588;2022-07-15T02:47:53;13.50;77.50
19847;DHT22;10084;50.518;8.588;2022-07-15T02:50:26;13.60;77.40
19847;DHT22;10084;50.518;8.588;2022-07-15T02:52:52;13.60;77.30
19847;DHT22;10084;50.518;8.588;2022-07-15T02:55:18;13.60;77.10
19847;DHT22;10084;50.518;8.588;2022-07-15T02:57:44;13.70;77.20
19847;DHT22;10084;50.518;8.588;2022-07-15T03:00:13;13.70;77.40
19847;DHT22;10084;50.518;8.588;2022-07-15T03:02:41;13.70;77.30
19847;DHT22;10084;50.518;8.588;2022-07-15T03:05:10;13.70;77.30
19847;DHT22;10084;50.518;8.588;2022-07-15T03:07:38;13.70;77.50
19847;DHT22;10084;50.518;8.588;2022-07-15T03:10:05;13.60;77.60
19847;DHT22;10084;50.518;8.588;2022-07-15T03:12:32;13.50;77.60
19847;DHT22;10084;50.518;8.588;2022-07-15T03:14:59;13.50;78.20
19847;DHT22;10084;50.518;8.588;2022-07-15T03:17:25;13.40;78.60
19847;DHT22;10084;50.518;8.588;2022-07-15T03:19:50;13.30;80.70
19847;DHT22;10084;50.518;8.588;2022-07-15T03:46:48;13.00;91.30
19847;DHT22;10084;50.518;8.588;2022-07-15T03:49:15;13.10;91.30
19847;DHT22;10084;50.518;8.588;2022-07-15T03:51:42;13.20;91.10
19847;DHT22;10084;50.518;8.588;2022-07-15T03:54:08;13.20;91.00
19847;DHT22;10084;50.518;8.588;2022-07-15T03:56:34;13.30;91.00
19847;DHT22;10084;50.518;8.588;2022-07-15T03:59:00;13.40;91.00
19847;DHT22;10084;50.518;8.588;2022-07-15T04:01:28;13.40;91.00
19847;DHT22;10084;50.518;8.588;2022-07-15T04:03:55;13.50;91.00
19847;DHT22;10084;50.518;8.588;2022-07-15T04:06:21;13.60;91.00
19847;DHT22;10084;50.518;8.588;2022-07-15T04:08:47;13.70;91.20
19847;DHT22;10084;50.518;8.588;2022-07-15T04:11:14;13.80;91.20
19847;DHT22;10084;50.518;8.588;2022-07-15T04:13:40;14.00;90.80
19847;DHT22;10084;50.518;8.588;2022-07-15T04:16:07;14.00;90.70
19847;DHT22;10084;50.518;8.588;2022-07-15T04:18:33;14.20;90.50
19847;DHT22;10084;50.518;8.588;2022-07-15T04:21:00;14.30;89.90
19847;DHT22;10084;50.518;8.588;2022-07-15T04:23:26;14.40;89.40
19847;DHT22;10084;50.518;8.588;2022-07-15T04:25:52;14.50;88.30
19847;DHT22;10084;50.518;8.588;2022-07-15T04:28:22;14.70;87.90
19847;DHT22;10084;50.518;8.588;2022-07-15T04:30:49;14.80;84.70
19847;DHT22;10084;50.518;8.588;2022-07-15T04:33:15;14.90;81.50
19847;DHT22;10084;50.518;8.588;2022-07-15T04:35:42;15.00;82.80
19847;DHT22;10084;50.518;8.588;2022-07-15T04:38:08;15.10;86.20
19847;DHT22;10084;50.518;8.588;2022-07-15T04:40:35;15.30;81.60
19847;DHT22;10084;50.518;8.588;2022-07-15T04:43:03;15.40;78.50
19847;DHT22;10084;50.518;8.588;2022-07-15T04:45:29;15.50;76.60
19847;DHT22;10084;50.518;8.588;2022-07-15T04:47:56;15.60;75.90
19847;DHT22;10084;50.518;8.588;2022-07-15T04:53:19;15.90;90.90
19847;DHT22;10084;50.518;8.588;2022-07-15T04:55:47;16.00;87.90
19847;DHT22;10084;50.518;8.588;2022-07-15T05:03:09;16.60;91.80
19847;DHT22;10084;50.518;8.588;2022-07-15T05:05:37;16.70;89.60
19847;DHT22;10084;50.518;8.588;2022-07-15T05:08:03;16.90;87.70
19847;DHT22;10084;50.518;8.588;2022-07-15T05:10:29;17.00;88.50
19847;DHT22;10084;50.518;8.588;2022-07-15T05:13:02;17.10;85.00
19847;DHT22;10084;50.518;8.588;2022-07-15T05:15:29;17.20;83.30
19847;DHT22;10084;50.518;8.588;2022-07-15T05:18:00;17.30;85.00
19847;DHT22;10084;50.518;8.588;2022-07-15T05:20:26;17.30;81.40
19847;DHT22;10084;50.518;8.588;2022-07-15T05:22:52;17.30;83.90
19847;DHT22;10084;50.518;8.588;2022-07-15T05:25:19;17.30;85.80
19847;DHT22;10084;50.518;8.588;2022-07-15T05:27:45;17.30;85.10
19847;DHT22;10084;50.518;8.588;2022-07-15T05:30:12;17.40;85.80
19847;DHT22;10084;50.518;8.588;2022-07-15T05:32:39;17.30;86.10
19847;DHT22;10084;50.518;8.588;2022-07-15T05:35:13;17.40;87.20
19847;DHT22;10084;50.518;8.588;2022-07-15T05:37:41;17.40;87.70
19847;DHT22;10084;50.518;8.588;2022-07-15T05:40:09;17.40;87.70
19847;DHT22;10084;50.518;8.588;2022-07-15T05:42:47;17.50;87.70
19847;DHT22;10084;50.518;8.588;2022-07-15T05:45:13;17.50;86.20
19847;DHT22;10084;50.518;8.588;2022-07-15T05:47:49;17.50;86.20
19847;DHT22;10084;50.518;8.588;2022-07-15T05:50:19;17.50;91.30
19847;DHT22;10084;50.518;8.588;2022-07-15T06:02:41;18.10;91.70
19847;DHT22;10084;50.518;8.588;2022-07-15T06:05:14;18.20;91.10
19847;DHT22;10084;50.518;8.588;2022-07-15T06:07:45;18.30;90.30
19847;DHT22;10084;50.518;8.588;2022-07-15T06:10:13;18.30;89.80
19847;DHT22;10084;50.518;8.588;2022-07-15T06:12:38;18.40;89.10
19847;DHT22;10084;50.518;8.588;2022-07-15T06:15:05;18.40;89.20
19847;DHT22;10084;50.518;8.588;2022-07-15T06:17:31;18.50;89.20
19847;DHT22;10084;50.518;8.588;2022-07-15T06:29:50;19.40;85.10
19847;DHT22;10084;50.518;8.588;2022-07-15T06:32:17;19.10;57.40
19847;DHT22;10084;50.518;8.588;2022-07-15T06:34:43;19.30;57.70
19847;DHT22;10084;50.518;8.588;2022-07-15T06:39:35;19.50;84.70
19847;DHT22;10084;50.518;8.588;2022-07-15T06:42:01;19.70;82.10
19847;DHT22;10084;50.518;8.588;2022-07-15T06:44:29;19.90;90.00
19847;DHT22;10084;50.518;8.588;2022-07-15T06:47:20;20.20;90.10
19847;DHT22;10084;50.518;8.588;2022-07-15T06:57:52;20.30;79.30
19847;DHT22;10084;50.518;8.588;2022-07-15T07:00:18;21.80;87.60
19847;DHT22;10084;50.518;8.588;2022-07-15T07:02:44;22.10;56.10
19847;DHT22;10084;50.518;8.588;2022-07-15T07:05:12;22.40;55.60
19847;DHT22;10084;50.518;8.588;2022-07-15T07:07:38;22.50;55.20
19847;DHT22;10084;50.518;8.588;2022-07-15T07:10:04;22.50;54.90
19847;DHT22;10084;50.518;8.588;2022-07-15T07:12:30;22.50;54.80
19847;DHT22;10084;50.518;8.588;2022-07-15T07:14:56;22.50;54.90
19847;DHT22;10084;50.518;8.588;2022-07-15T07:17:22;22.50;55.00
19847;DHT22;10084;50.518;8.588;2022-07-15T07:19:48;22.60;55.20
19847;DHT22;10084;50.518;8.588;2022-07-15T07:22:14;22.70;59.10
19847;DHT22;10084;50.518;8.588;2022-07-15T07:24:39;22.80;87.10
19847;DHT22;10084;50.518;8.588;2022-07-15T07:27:05;23.00;55.00
19847;DHT22;10084;50.518;8.588;2022-07-15T07:29:33;23.30;88.40
19847;DHT22;10084;50.518;8.588;2022-07-15T07:44:21;25.60;89.10
19847;DHT22;10084;50.518;8.588;2022-07-15T07:46:47;25.60;78.10
19847;DHT22;10084;50.518;8.588;2022-07-15T07:49:13;25.70;73.70
19847;DHT22;10084;50.518;8.588;2022-07-15T07:51:39;25.80;73.90
19847;DHT22;10084;50.518;8.588;2022-07-15T09:00:11;28.80;62.20
19847;DHT22;10084;50.518;8.588;2022-07-15T09:10:23;28.10;66.00
19847;DHT22;10084;50.518;8.588;2022-07-15T09:12:50;27.70;63.70
19847;DHT22;10084;50.518;8.588;2022-07-15T09:18:16;27.80;65.60
19847;DHT22;10084;50.518;8.588;2022-07-15T09:38:42;25.70;58.40
19847;DHT22;10084;50.518;8.588;2022-07-15T10:34:35;25.40;76.10
19847;DHT22;10084;50.518;8.588;2022-07-15T10:37:07;25.40;74.40
19847;DHT22;10084;50.518;8.588;2022-07-15T10:39:51;25.30;74.50
19847;DHT22;10084;50.518;8.588;2022-07-15T10:42:18;25.30;74.60
19847;DHT22;10084;50.518;8.588;2022-07-15T10:49:41;25.50;74.40
19847;DHT22;10084;50.518;8.588;2022-07-15T11:15:03;26.70;72.30
19847;DHT22;10084;50.518;8.588;2022-07-15T11:19:59;26.20;72.30
19847;DHT22;10084;50.518;8.588;2022-07-15T11:22:27;26.00;72.30
19847;DHT22;10084;50.518;8.588;2022-07-15T11:24:54;25.80;72.10
19847;DHT22;10084;50.518;8.588;2022-07-15T11:27:21;25.60;72.30
19847;DHT22;10084;50.518;8.588;2022-07-15T11:29:53;25.50;72.30
19847;DHT22;10084;50.518;8.588;2022-07-15T11:32:22;25.50;72.30
19847;DHT22;10084;50.518;8.588;2022-07-15T11:34:51;25.30;72.20
19847;DHT22;10084;50.518;8.588;2022-07-15T11:37:18;25.30;72.40
19847;DHT22;10084;50.518;8.588;2022-07-15T11:39:49;25.30;72.50
19847;DHT22;10084;50.518;8.588;2022-07-15T11:42:20;25.40;72.30
19847;DHT22;10084;50.518;8.588;2022-07-15T11:45:05;25.60;72.20
19847;DHT22;10084;50.518;8.588;2022-07-15T11:47:31;25.80;72.00
19847;DHT22;10084;50.518;8.588;2022-07-15T11:50:03;26.10;72.10
19847;DHT22;10084;50.518;8.588;2022-07-15T11:52:29;26.30;71.90
19847;DHT22;10084;50.518;8.588;2022-07-15T11:54:55;26.50;71.60
19847;DHT22;10084;50.518;8.588;2022-07-15T11:57:22;26.70;71.50
19847;DHT22;10084;50.518;8.588;2022-07-15T11:59:56;26.90;71.40
19847;DHT22;10084;50.518;8.588;2022-07-15T12:02:27;27.10;71.20
19847;DHT22;10084;50.518;8.588;2022-07-15T12:05:04;27.00;70.70
19847;DHT22;10084;50.518;8.588;2022-07-15T12:07:41;26.90;71.30
19847;DHT22;10084;50.518;8.588;2022-07-15T12:10:08;26.90;70.80
19847;DHT22;10084;50.518;8.588;2022-07-15T12:12:34;27.00;70.90
19847;DHT22;10084;50.518;8.588;2022-07-15T12:15:00;27.00;70.50
19847;DHT22;10084;50.518;8.588;2022-07-15T12:17:26;26.90;70.30
19847;DHT22;10084;50.518;8.588;2022-07-15T12:19:52;26.80;70.30
19847;DHT22;10084;50.518;8.588;2022-07-15T12:22:19;26.70;70.20
19847;DHT22;10084;50.518;8.588;2022-07-15T12:24:47;26.60;70.10
19847;DHT22;10084;50.518;8.588;2022-07-15T12:27:17;26.50;70.00
19847;DHT22;10084;50.518;8.588;2022-07-15T12:29:43;26.40;70.10
19847;DHT22;10084;50.518;8.588;2022-07-15T12:32:11;26.30;69.80
19847;DHT22;10084;50.518;8.588;2022-07-15T12:37:18;26.10;69.50
19847;DHT22;10084;50.518;8.588;2022-07-15T12:40:17;26.10;69.60
19847;DHT22;10084;50.518;8.588;2022-07-15T12:42:47;26.30;69.60
19847;DHT22;10084;50.518;8.588;2022-07-15T12:45:18;26.50;69.50
19847;DHT22;10084;50.518;8.588;2022-07-15T12:50:30;27.00;69.30
19847;DHT22;10084;50.518;8.588;2022-07-15T12:52:57;27.20;69.30
19847;DHT22;10084;50.518;8.588;2022-07-15T12:55:25;27.30;69.70
19847;DHT22;10084;50.518;8.588;2022-07-15T12:58:05;27.40;68.90
19847;DHT22;10084;50.518;8.588;2022-07-15T13:00:31;27.30;68.90
19847;DHT22;10084;50.518;8.588;2022-07-15T13:03:11;27.10;68.70
19847;DHT22;10084;50.518;8.588;2022-07-15T13:05:48;26.90;68.80
19847;DHT22;10084;50.518;8.588;2022-07-15T13:08:17;26.60;68.70
19847;DHT22;10084;50.518;8.588;2022-07-15T13:10:46;26.40;68.80
19847;DHT22;10084;50.518;8.588;2022-07-15T13:13:14;26.20;68.90
19847;DHT22;10084;50.518;8.588;2022-07-15T13:15:41;26.10;69.00
19847;DHT22;10084;50.518;8.588;2022-07-15T13:18:07;26.10;69.00
19847;DHT22;10084;50.518;8.588;2022-07-15T13:20:33;26.00;68.90
19847;DHT22;10084;50.518;8.588;2022-07-15T13:22:59;26.00;68.80
19847;DHT22;10084;50.518;8.588;2022-07-15T13:25:25;26.00;68.70
19847;DHT22;10084;50.518;8.588;2022-07-15T13:27:51;26.10;68.50
19847;DHT22;10084;50.518;8.588;2022-07-15T13:30:17;26.20;68.60
19847;DHT22;10084;50.518;8.588;2022-07-15T13:32:43;26.40;68.40
19847;DHT22;10084;50.518;8.588;2022-07-15T13:35:10;26.50;68.30
19847;DHT22;10084;50.518;8.588;2022-07-15T13:37:36;26.60;68.20
19847;DHT22;10084;50.518;8.588;2022-07-15T13:40:04;26.60;68.10
19847;DHT22;10084;50.518;8.588;2022-07-15T13:42:30;26.50;67.90
19847;DHT22;10084;50.518;8.588;2022-07-15T13:44:56;26.40;67.90
19847;DHT22;10084;50.518;8.588;2022-07-15T13:47:23;26.20;68.00
19847;DHT22;10084;50.518;8.588;2022-07-15T13:49:49;26.10;68.00
19847;DHT22;10084;50.518;8.588;2022-07-15T13:52:44;26.10;68.10
19847;DHT22;10084;50.518;8.588;2022-07-15T13:55:10;26.00;68.10
19847;DHT22;10084;50.518;8.588;2022-07-15T13:57:37;25.90;68.10
19847;DHT22;10084;50.518;8.588;2022-07-15T14:00:08;25.80;68.30
19847;DHT22;10084;50.518;8.588;2022-07-15T14:02:35;25.70;68.30
19847;DHT22;10084;50.518;8.588;2022-07-15T14:05:01;25.60;68.30
19847;DHT22;10084;50.518;8.588;2022-07-15T14:07:26;25.50;68.40
19847;DHT22;10084;50.518;8.588;2022-07-15T14:09:52;25.40;68.60
19847;DHT22;10084;50.518;8.588;2022-07-15T14:12:18;25.30;68.90
19847;DHT22;10084;50.518;8.588;2022-07-15T14:14:44;25.30;69.20
19847;DHT22;10084;50.518;8.588;2022-07-15T14:17:09;25.30;69.40
19847;DHT22;10084;50.518;8.588;2022-07-15T14:19:35;25.30;69.40
19847;DHT22;10084;50.518;8.588;2022-07-15T14:22:01;25.40;69.50
19847;DHT22;10084;50.518;8.588;2022-07-15T14:24:26;25.40;69.30
19847;DHT22;10084;50.518;8.588;2022-07-15T14:26:52;25.50;69.20
19847;DHT22;10084;50.518;8.588;2022-07-15T14:29:18;25.50;69.10
19847;DHT22;10084;50.518;8.588;2022-07-15T14:31:44;25.60;69.10
19847;DHT22;10084;50.518;8.588;2022-07-15T14:34:10;25.60;69.00
19847;DHT22;10084;50.518;8.588;2022-07-15T14:36:35;25.60;69.10
19847;DHT22;10084;50.518;8.588;2022-07-15T14:39:02;25.60;69.10
19847;DHT22;10084;50.518;8.588;2022-07-15T14:41:28;25.70;69.10
19847;DHT22;10084;50.518;8.588;2022-07-15T14:43:53;25.60;69.10
19847;DHT22;10084;50.518;8.588;2022-07-15T14:46:19;25.60;69.10
19847;DHT22;10084;50.518;8.588;2022-07-15T14:51:13;25.40;68.90
19847;DHT22;10084;50.518;8.588;2022-07-15T14:53:39;25.30;69.80
19847;DHT22;10084;50.518;8.588;2022-07-15T14:56:05;25.20;70.10
19847;DHT22;10084;50.518;8.588;2022-07-15T14:58:31;25.20;70.20
19847;DHT22;10084;50.518;8.588;2022-07-15T15:00:56;25.20;70.30
19847;DHT22;10084;50.518;8.588;2022-07-15T15:26:23;24.60;57.70
19847;DHT22;10084;50.518;8.588;2022-07-15T15:31:17;23.30;59.70
19847;DHT22;10084;50.518;8.588;2022-07-15T15:33:44;24.10;54.20
19847;DHT22;10084;50.518;8.588;2022-07-15T15:36:10;24.10;54.10
19847;DHT22;10084;50.518;8.588;2022-07-15T15:38:35;24.10;56.00
19847;DHT22;10084;50.518;8.588;2022-07-15T15:41:01;24.10;57.00
19847;DHT22;10084;50.518;8.588;2022-07-15T15:43:27;24.10;49.20
19847;DHT22;10084;50.518;8.588;2022-07-15T15:48:20;23.90;54.70
19847;DHT22;10084;50.518;8.588;2022-07-15T15:53:12;24.40;48.80
19847;DHT22;10084;50.518;8.588;2022-07-15T15:55:38;23.40;52.60
19847;DHT22;10084;50.518;8.588;2022-07-15T15:58:03;23.70;50.70
19847;DHT22;10084;50.518;8.588;2022-07-15T16:00:29;23.70;57.80
19847;DHT22;10084;50.518;8.588;2022-07-15T16:02:55;23.60;58.50
19847;DHT22;10084;50.518;8.588;2022-07-15T16:05:21;21.80;46.70
19847;DHT22;10084;50.518;8.588;2022-07-15T16:07:46;23.60;49.00
19847;DHT22;10084;50.518;8.588;2022-07-15T16:10:13;23.60;50.50
19847;DHT22;10084;50.518;8.588;2022-07-15T16:12:39;23.80;49.70
19847;DHT22;10084;50.518;8.588;2022-07-15T16:15:05;23.70;48.70
19847;DHT22;10084;50.518;8.588;2022-07-15T16:17:31;23.80;48.90
19847;DHT22;10084;50.518;8.588;2022-07-15T16:19:57;23.80;49.30
19847;DHT22;10084;50.518;8.588;2022-07-15T16:22:22;23.90;50.10
19847;DHT22;10084;50.518;8.588;2022-07-15T16:25:07;23.90;51.40
19847;DHT22;10084;50.518;8.588;2022-07-15T16:27:33;23.90;58.10
19847;DHT22;10084;50.518;8.588;2022-07-15T16:29:59;23.80;50.10
19847;DHT22;10084;50.518;8.588;2022-07-15T16:32:24;23.80;50.30
19847;DHT22;10084;50.518;8.588;2022-07-15T16:34:50;23.80;50.50
19847;DHT22;10084;50.518;8.588;2022-07-15T16:37:16;23.80;50.90
19847;DHT22;10084;50.518;8.588;2022-07-15T16:39:42;23.90;50.40
19847;DHT22;10084;50.518;8.588;2022-07-15T16:42:07;23.90;50.60
19847;DHT22;10084;50.518;8.588;2022-07-15T16:44:33;24.00;51.30
19847;DHT22;10084;50.518;8.588;2022-07-15T16:46:59;24.00;51.60
19847;DHT22;10084;50.518;8.588;2022-07-15T16:49:25;24.00;51.00
19847;DHT22;10084;50.518;8.588;2022-07-15T16:51:51;24.00;43.60
19847;DHT22;10084;50.518;8.588;2022-07-15T16:54:17;24.00;43.30
19847;DHT22;10084;50.518;8.588;2022-07-15T16:56:43;24.00;43.00
19847;DHT22;10084;50.518;8.588;2022-07-15T16:59:08;24.10;42.90
19847;DHT22;10084;50.518;8.588;2022-07-15T17:01:34;24.10;42.80
19847;DHT22;10084;50.518;8.588;2022-07-15T17:04:00;24.20;42.70
19847;DHT22;10084;50.518;8.588;2022-07-15T17:06:25;24.20;42.60
19847;DHT22;10084;50.518;8.588;2022-07-15T17:08:51;24.30;42.60
19847;DHT22;10084;50.518;8.588;2022-07-15T17:11:17;24.30;42.40
19847;DHT22;10084;50.518;8.588;2022-07-15T17:13:43;24.30;42.40
19847;DHT22;10084;50.518;8.588;2022-07-15T17:16:10;24.30;42.20
19847;DHT22;10084;50.518;8.588;2022-07-15T17:18:35;24.30;42.00
19847;DHT22;10084;50.518;8.588;2022-07-15T17:21:01;24.20;41.80
19847;DHT22;10084;50.518;8.588;2022-07-15T17:23:29;24.10;41.70
19847;DHT22;10084;50.518;8.588;2022-07-15T17:25:55;24.10;41.80
19847;DHT22;10084;50.518;8.588;2022-07-15T17:28:21;23.90;41.80
19847;DHT22;10084;50.518;8.588;2022-07-15T17:30:46;23.80;42.20
19847;DHT22;10084;50.518;8.588;2022-07-15T17:33:12;23.70;44.40
19847;DHT22;10084;50.518;8.588;2022-07-15T17:35:38;23.60;48.80
19847;DHT22;10084;50.518;8.588;2022-07-15T17:38:04;23.50;63.80
19847;DHT22;10084;50.518;8.588;2022-07-15T17:40:30;23.50;57.20
19847;DHT22;10084;50.518;8.588;2022-07-15T17:42:55;23.40;59.00
19847;DHT22;10084;50.518;8.588;2022-07-15T17:45:21;23.30;61.70
19847;DHT22;10084;50.518;8.588;2022-07-15T17:52:40;23.20;49.80
19847;DHT22;10084;50.518;8.588;2022-07-15T17:55:09;23.00;48.60
19847;DHT22;10084;50.518;8.588;2022-07-15T17:57:35;23.00;47.80
19847;DHT22;10084;50.518;8.588;2022-07-15T18:00:04;22.90;49.40
19847;DHT22;10084;50.518;8.588;2022-07-15T18:02:38;22.80;49.50
19847;DHT22;10084;50.518;8.588;2022-07-15T18:05:04;22.70;51.70
19847;DHT22;10084;50.518;8.588;2022-07-15T18:07:32;22.40;71.90
19847;DHT22;10084;50.518;8.588;2022-07-15T18:17:17;22.10;74.20
19847;DHT22;10084;50.518;8.588;2022-07-15T18:19:42;22.10;56.50
19847;DHT22;10084;50.518;8.588;2022-07-15T18:22:09;22.00;58.60
19847;DHT22;10084;50.518;8.588;2022-07-15T18:24:35;21.90;58.50
19847;DHT22;10084;50.518;8.588;2022-07-15T18:27:00;21.90;51.20
19847;DHT22;10084;50.518;8.588;2022-07-15T18:29:26;21.80;58.10
19847;DHT22;10084;50.518;8.588;2022-07-15T18:34:18;21.60;72.80
19847;DHT22;10084;50.518;8.588;2022-07-15T18:39:10;21.40;72.40
19847;DHT22;10084;50.518;8.588;2022-07-15T18:41:36;21.40;55.00
19847;DHT22;10084;50.518;8.588;2022-07-15T18:46:28;21.30;51.90
19847;DHT22;10084;50.518;8.588;2022-07-15T18:48:54;21.20;53.00
19847;DHT22;10084;50.518;8.588;2022-07-15T18:51:21;21.20;55.30
19847;DHT22;10084;50.518;8.588;2022-07-15T18:56:13;21.00;62.70
19847;DHT22;10084;50.518;8.588;2022-07-15T18:58:40;20.90;64.90
19847;DHT22;10084;50.518;8.588;2022-07-15T19:01:08;20.90;66.00
19847;DHT22;10084;50.518;8.588;2022-07-15T19:03:34;20.80;69.10
19847;DHT22;10084;50.518;8.588;2022-07-15T19:06:02;20.60;72.00
19847;DHT22;10084;50.518;8.588;2022-07-15T19:35:19;19.80;47.60
19847;DHT22;10084;50.518;8.588;2022-07-15T19:37:45;19.70;46.70
19847;DHT22;10084;50.518;8.588;2022-07-15T19:42:38;19.50;63.60
19847;DHT22;10084;50.518;8.588;2022-07-15T19:45:05;19.50;55.10
19847;DHT22;10084;50.518;8.588;2022-07-15T19:47:33;19.90;73.30
19847;DHT22;10084;50.518;8.588;2022-07-15T20:19:39;18.00;75.80
19847;DHT22;10084;50.518;8.588;2022-07-15T20:34:18;17.70;76.80
19847;DHT22;10084;50.518;8.588;2022-07-15T20:36:44;17.70;70.90
19847;DHT22;10084;50.518;8.588;2022-07-15T20:39:10;17.60;71.80
19847;DHT22;10084;50.518;8.588;2022-07-15T20:51:29;17.20;76.20
19847;DHT22;10084;50.518;8.588;2022-07-15T20:56:21;17.10;73.00
19847;DHT22;10084;50.518;8.588;2022-07-15T20:58:47;17.10;72.10
19847;DHT22;10084;50.518;8.588;2022-07-15T21:03:39;17.00;80.70
19847;DHT22;10084;50.518;8.588;2022-07-15T21:06:05;17.00;62.60
19847;DHT22;10084;50.518;8.588;2022-07-15T21:08:31;16.90;68.50
19847;DHT22;10084;50.518;8.588;2022-07-15T21:13:23;16.80;73.50
19847;DHT22;10084;50.518;8.588;2022-07-15T21:20:41;16.60;78.00
19847;DHT22;10084;50.518;8.588;2022-07-15T21:23:08;16.60;70.50
19847;DHT22;10084;50.518;8.588;2022-07-15T21:25:33;16.50;66.70
19847;DHT22;10084;50.518;8.588;2022-07-15T21:28:18;16.50;64.60
19847;DHT22;10084;50.518;8.588;2022-07-15T21:30:43;16.40;64.40
19847;DHT22;10084;50.518;8.588;2022-07-15T21:33:09;16.40;64.30
19847;DHT22;10084;50.518;8.588;2022-07-15T21:35:35;16.30;51.60
19847;DHT22;10084;50.518;8.588;2022-07-15T21:38:00;16.30;50.00
19847;DHT22;10084;50.518;8.588;2022-07-15T21:40:26;16.20;49.60
19847;DHT22;10084;50.518;8.588;2022-07-15T21:42:52;16.20;48.10
19847;DHT22;10084;50.518;8.588;2022-07-15T21:45:20;16.10;54.10
19847;DHT22;10084;50.518;8.588;2022-07-15T21:47:46;16.00;59.00
19847;DHT22;10084;50.518;8.588;2022-07-15T21:55:06;15.70;47.10
19847;DHT22;10084;50.518;8.588;2022-07-15T21:59:58;15.60;74.40
19847;DHT22;10084;50.518;8.588;2022-07-15T22:04:50;15.10;58.50
19847;DHT22;10084;50.518;8.588;2022-07-15T22:07:17;15.00;63.90
19847;DHT22;10084;50.518;8.588;2022-07-15T22:21:57;14.40;77.10
19847;DHT22;10084;50.518;8.588;2022-07-15T22:24:23;14.40;63.40
19847;DHT22;10084;50.518;8.588;2022-07-15T22:26:49;14.30;63.60
19847;DHT22;10084;50.518;8.588;2022-07-15T22:29:15;14.20;66.00
19847;DHT22;10084;50.518;8.588;2022-07-15T22:34:07;13.90;77.90
19847;DHT22;10084;50.518;8.588;2022-07-15T22:36:32;14.00;73.10
19847;DHT22;10084;50.518;8.588;2022-07-15T22:38:58;13.90;64.40
19847;DHT22;10084;50.518;8.588;2022-07-15T22:41:24;13.80;65.30
19847;DHT22;10084;50.518;8.588;2022-07-15T22:43:50;13.80;67.00
19847;DHT22;10084;50.518;8.588;2022-07-15T22:46:15;13.70;68.20
19847;DHT22;10084;50.518;8.588;2022-07-15T22:48:41;13.70;69.10
19847;DHT22;10084;50.518;8.588;2022-07-15T22:51:07;13.60;69.20
19847;DHT22;10084;50.518;8.588;2022-07-15T22:53:32;13.60;69.80